Time;durP1;ratioP1;P1;durP2;ratioP2;P2;SDS_P1;SDS_P2;PMS_P1;PMS_P2;Temp;Humidity;BMP_temperature;BMP_pressure;BME280_temperature;BME280_humidity;BME280_pressure;Samples;Min_cycle;Max_cycle;Signal;HPM_P1;HPM_P2
2022/09/12 00:02:40;;;;;;;3.05;1.65;;;;;;;-140.66;100.00;55571.53;5039876;28;20033;-72
2022/09/12 00:05:27;;;;;;;7.40;1.90;;;;;;;-140.66;100.00;55571.53;5053949;28;20022;-72
2022/09/12 00:08:13;;;;;;;3.40;1.70;;;;;;;-140.66;100.00;55571.53;5039840;28;20035;-72
2022/09/12 00:11:03;;;;;;;3.92;1.90;;;;;;;-140.66;100.00;55571.53;5040080;28;20021;-72
2022/09/12 00:13:49;;;;;;;4.32;1.70;;;;;;;-140.66;100.00;55571.53;5053967;28;20072;-72
2022/09/12 00:16:36;;;;;;;5.53;1.70;;;;;;;-140.66;100.00;55571.53;5054337;28;20024;-71
2022/09/12 00:19:21;;;;;;;3.17;1.60;;;;;;;-140.66;100.00;55571.53;5053652;28;20036;-71
2022/09/12 00:22:07;;;;;;;3.15;1.80;;;;;;;-140.66;100.00;55571.53;5053773;28;20036;-72
2022/09/12 00:24:53;;;;;;;2.28;1.70;;;;;;;-140.66;100.00;55571.53;5053490;28;20099;-71
2022/09/12 00:27:38;;;;;;;3.28;1.52;;;;;;;-140.66;100.00;55571.53;5054459;28;20040;-72
2022/09/12 00:30:24;;;;;;;2.78;1.77;;;;;;;-140.66;100.00;55571.53;5054551;28;20075;-72
2022/09/12 00:33:11;;;;;;;2.70;1.60;;;;;;;-140.66;100.00;55571.53;5054094;28;20186;-71
2022/09/12 00:35:56;;;;;;;4.82;1.58;;;;;;;-140.66;100.00;55571.53;5053398;28;20017;-72
2022/09/12 00:38:43;;;;;;;2.40;1.67;;;;;;;-140.66;100.00;55571.53;5053738;28;20025;-72
2022/09/12 00:41:33;;;;;;;1.77;1.50;;;;;;;-140.66;100.00;55571.53;5053505;28;20071;-72
2022/09/12 00:44:21;;;;;;;2.38;1.45;;;;;;;-140.66;100.00;55571.53;5053492;28;20024;-72
2022/09/12 00:47:10;;;;;;;3.35;1.52;;;;;;;-140.66;100.00;55571.53;5053556;28;20036;-72
2022/09/12 00:50:06;;;;;;;3.75;1.60;;;;;;;-140.66;100.00;55571.53;5039680;28;20392;-71
2022/09/12 00:52:56;;;;;;;4.20;1.33;;;;;;;-140.66;100.00;55571.53;5039515;28;20353;-72
2022/09/12 00:55:47;;;;;;;1.73;1.30;;;;;;;-140.66;100.00;55571.53;5053014;28;20083;-71
2022/09/12 00:58:41;;;;;;;4.20;1.45;;;;;;;-140.66;100.00;55571.53;5039612;28;20313;-71
2022/09/12 01:01:27;;;;;;;4.15;1.60;;;;;;;-140.66;100.00;55571.53;5039289;28;20167;-71
2022/09/12 01:04:14;;;;;;;2.85;1.42;;;;;;;-140.66;100.00;55571.53;5039171;28;20055;-72
2022/09/12 01:07:03;;;;;;;4.68;1.58;;;;;;;-140.66;100.00;55571.53;5052910;28;20083;-72
2022/09/12 01:09:48;;;;;;;2.53;1.35;;;;;;;-140.66;100.00;55571.53;5053845;28;20108;-71
2022/09/12 01:12:38;;;;;;;4.43;1.30;;;;;;;-140.66;100.00;55571.53;5053556;28;20025;-72
2022/09/12 01:15:23;;;;;;;3.08;1.88;;;;;;;-140.66;100.00;55571.53;5040101;28;20036;-72
2022/09/12 01:18:20;;;;;;;3.70;1.58;;;;;;;-140.66;100.00;55571.53;5053218;28;20029;-71
2022/09/12 01:21:44;;;;;;;1.92;1.60;;;;;;;-140.66;100.00;55571.53;5052945;28;20501;-71
2022/09/12 01:25:04;;;;;;;2.45;1.50;;;;;;;-140.66;100.00;55571.53;5030663;28;20041;-71
2022/09/12 01:28:11;;;;;;;3.90;1.63;;;;;;;-140.66;100.00;55571.53;5052731;28;20033;-72
2022/09/12 01:31:26;;;;;;;3.13;1.58;;;;;;;-140.66;100.00;55571.53;5054060;28;20021;-71
2022/09/12 01:34:38;;;;;;;2.78;1.55;;;;;;;-140.66;100.00;55571.53;5038794;28;20099;-71
2022/09/12 01:37:37;;;;;;;3.22;1.90;;;;;;;-140.66;100.00;55571.53;5038923;28;20450;-71
2022/09/12 01:40:55;;;;;;;2.70;1.60;;;;;;;-140.66;100.00;55571.53;5053038;28;20054;-71
2022/09/12 01:43:54;;;;;;;2.95;1.60;;;;;;;-140.66;100.00;55571.53;5053225;28;20361;-70
2022/09/12 01:46:56;;;;;;;3.13;1.70;;;;;;;-140.66;100.00;55571.53;5053164;28;20025;-71
2022/09/12 01:50:05;;;;;;;5.82;1.88;;;;;;;-140.66;100.00;55571.53;5054896;28;20043;-72
2022/09/12 01:52:59;;;;;;;3.60;1.65;;;;;;;-140.66;100.00;55571.53;5056665;28;20035;-72
2022/09/12 01:55:50;;;;;;;2.17;1.42;;;;;;;-140.66;100.00;55571.53;5055932;28;20367;-72
2022/09/12 01:58:48;;;;;;;2.47;1.23;;;;;;;-140.66;100.00;55571.53;5042305;28;20128;-72
2022/09/12 02:01:40;;;;;;;1.80;1.50;;;;;;;-140.66;100.00;55571.53;5042475;28;20358;-72
2022/09/12 02:04:37;;;;;;;4.15;1.50;;;;;;;-140.66;100.00;55571.53;5055963;28;20029;-71
2022/09/12 02:07:30;;;;;;;4.53;1.58;;;;;;;-140.66;100.00;55571.53;5056374;28;20025;-71
2022/09/12 02:10:22;;;;;;;1.92;1.30;;;;;;;-140.66;100.00;55571.53;5056772;28;20029;-72
2022/09/12 02:13:28;;;;;;;1.75;1.20;;;;;;;-140.66;100.00;55571.53;5056496;28;20056;-71
2022/09/12 02:16:17;;;;;;;3.97;1.50;;;;;;;-140.66;100.00;55571.53;5057124;28;20043;-72
2022/09/12 02:19:13;;;;;;;1.73;1.50;;;;;;;-140.66;100.00;55571.53;5055856;28;20021;-72
2022/09/12 02:22:02;;;;;;;3.20;1.60;;;;;;;-140.66;100.00;55571.53;5042229;28;20032;-71
2022/09/12 02:24:51;;;;;;;1.92;1.35;;;;;;;-140.66;100.00;55571.53;5056066;28;20029;-72
2022/09/12 02:27:43;;;;;;;3.72;1.20;;;;;;;-140.66;100.00;55571.53;5056192;28;20432;-71
2022/09/12 02:30:36;;;;;;;2.65;1.30;;;;;;;-140.66;100.00;55571.53;5041988;28;20033;-71
2022/09/12 02:33:53;;;;;;;4.70;1.63;;;;;;;-140.66;100.00;55571.53;5056041;28;20052;-71
2022/09/12 02:36:48;;;;;;;4.43;1.90;;;;;;;-140.66;100.00;55571.53;5042501;28;20025;-72
2022/09/12 02:39:35;;;;;;;3.78;1.50;;;;;;;-140.66;100.00;55571.53;5055515;28;20039;-71
2022/09/12 02:42:21;;;;;;;4.20;1.70;;;;;;;-140.66;100.00;55571.53;5055701;28;20024;-72
2022/09/12 02:45:08;;;;;;;3.47;1.77;;;;;;;-140.66;100.00;55571.53;5055224;28;20056;-72
2022/09/12 02:48:15;;;;;;;2.83;1.73;;;;;;;-140.66;100.00;55571.53;5041477;28;20037;-72
2022/09/12 02:51:01;;;;;;;3.95;1.65;;;;;;;-140.66;100.00;55571.53;5041302;28;20478;-72
2022/09/12 02:53:47;;;;;;;5.22;2.03;;;;;;;-140.66;100.00;55571.53;5041421;28;20032;-71
2022/09/12 02:56:33;;;;;;;2.35;1.70;;;;;;;-140.66;100.00;55571.53;5055033;28;20453;-71
2022/09/12 02:59:21;;;;;;;2.80;1.70;;;;;;;-140.66;100.00;55571.53;5055486;28;20062;-72
2022/09/12 03:02:29;;;;;;;2.58;1.60;;;;;;;-140.66;100.00;55571.53;5039922;28;20113;-71
2022/09/12 03:05:17;;;;;;;3.28;1.60;;;;;;;-140.66;100.00;55571.53;5055011;28;20025;-71
2022/09/12 03:08:40;;;;;;;4.35;2.03;;;;;;;-140.66;100.00;55571.53;5040944;28;20032;-71
2022/09/12 03:11:35;;;;;;;3.70;1.95;;;;;;;-140.66;100.00;55571.53;5041359;28;20036;-71
2022/09/12 03:14:43;;;;;;;3.20;1.92;;;;;;;-140.66;100.00;55571.53;5041002;28;20025;-71
2022/09/12 03:17:45;;;;;;;6.00;2.10;;;;;;;-140.66;100.00;55571.53;5055196;28;20036;-71
2022/09/12 03:20:52;;;;;;;4.00;1.95;;;;;;;-140.66;100.00;55571.53;5056385;28;20028;-71
2022/09/12 03:23:46;;;;;;;2.70;1.88;;;;;;;-140.66;100.00;55571.53;5040741;28;20029;-72
2022/09/12 03:26:40;;;;;;;3.08;2.17;;;;;;;-140.66;100.00;55571.53;5040508;28;20095;-72
2022/09/12 03:29:28;;;;;;;3.20;2.20;;;;;;;-140.66;100.00;55571.53;5054597;28;20032;-72
2022/09/12 03:32:14;;;;;;;6.40;2.40;;;;;;;-140.66;100.00;55571.53;5041957;28;20060;-71
2022/09/12 03:35:00;;;;;;;3.15;2.10;;;;;;;-140.66;100.00;55571.53;5040643;28;20039;-72
2022/09/12 03:37:47;;;;;;;2.22;2.00;;;;;;;-140.66;100.00;55571.53;5040439;28;20021;-72
2022/09/12 03:40:34;;;;;;;5.07;2.10;;;;;;;-140.66;100.00;55571.53;5055095;28;20033;-70
2022/09/12 03:43:20;;;;;;;3.40;2.22;;;;;;;-140.66;100.00;55571.53;5054233;28;20029;-71
2022/09/12 03:46:05;;;;;;;2.45;2.10;;;;;;;-140.66;100.00;55571.53;5055083;28;20098;-71
2022/09/12 03:48:51;;;;;;;2.80;2.20;;;;;;;-140.66;100.00;55571.53;5054512;28;20072;-71
2022/09/12 03:51:38;;;;;;;4.20;2.42;;;;;;;-140.66;100.00;55571.53;5040168;28;20021;-72
2022/09/12 03:54:24;;;;;;;3.22;2.38;;;;;;;-140.66;100.00;55571.53;5054495;28;20366;-72
2022/09/12 03:57:10;;;;;;;4.38;2.08;;;;;;;-140.66;100.00;55571.53;5039890;28;20064;-71
2022/09/12 03:59:55;;;;;;;4.93;2.15;;;;;;;-140.66;100.00;55571.53;5040180;28;20034;-71
2022/09/12 04:02:41;;;;;;;3.70;2.35;;;;;;;-140.66;100.00;55571.53;5054708;28;20052;-71
2022/09/12 04:05:27;;;;;;;3.92;2.17;;;;;;;-140.66;100.00;55571.53;5055213;28;20368;-71
2022/09/12 04:08:13;;;;;;;5.68;2.22;;;;;;;-140.66;100.00;55571.53;5054427;28;20102;-71
2022/09/12 04:11:07;;;;;;;4.10;2.17;;;;;;;-140.66;100.00;55571.53;5054403;28;20044;-71
2022/09/12 04:13:53;;;;;;;3.70;2.45;;;;;;;-140.66;100.00;55571.53;5054471;28;20446;-71
2022/09/12 04:16:39;;;;;;;2.70;1.92;;;;;;;-140.66;100.00;55571.53;5054386;28;20060;-71
2022/09/12 04:19:26;;;;;;;3.83;2.53;;;;;;;-140.66;100.00;55571.53;5054083;28;20468;-72
2022/09/12 04:22:11;;;;;;;3.30;2.38;;;;;;;-140.66;100.00;55571.53;5053610;28;20043;-72
2022/09/12 04:24:57;;;;;;;3.08;2.40;;;;;;;-140.66;100.00;55571.53;5053800;28;20055;-71
2022/09/12 04:27:43;;;;;;;3.05;2.17;;;;;;;-140.66;100.00;55571.53;5054384;28;20100;-71
2022/09/12 04:30:29;;;;;;;7.00;2.50;;;;;;;-140.66;100.00;55571.53;5054598;28;20032;-71
2022/09/12 04:33:14;;;;;;;4.45;2.50;;;;;;;-140.66;100.00;55571.53;5053955;28;20095;-71
2022/09/12 04:36:10;;;;;;;3.45;2.90;;;;;;;-140.66;100.00;55571.53;5053684;28;20104;-71
2022/09/12 04:38:56;;;;;;;7.22;2.85;;;;;;;-140.66;100.00;55571.53;5054325;28;20033;-71
2022/09/12 04:41:41;;;;;;;4.40;2.53;;;;;;;-140.66;100.00;55571.53;5054556;28;20131;-71
2022/09/12 04:44:27;;;;;;;4.32;2.40;;;;;;;-140.66;100.00;55571.53;5039177;28;20446;-72
2022/09/12 04:47:13;;;;;;;4.05;2.47;;;;;;;-140.66;100.00;55571.53;5054218;28;20025;-71
2022/09/12 04:49:59;;;;;;;4.95;3.05;;;;;;;-140.66;100.00;55571.53;5053340;28;20039;-71
2022/09/12 04:52:52;;;;;;;4.28;2.78;;;;;;;-140.66;100.00;55571.53;5053711;28;20032;-71
2022/09/12 04:55:38;;;;;;;5.75;2.95;;;;;;;-140.66;100.00;55571.53;5054081;28;20080;-71
2022/09/12 04:58:23;;;;;;;3.10;2.47;;;;;;;-140.66;100.00;55571.53;5054570;28;20013;-72
2022/09/12 05:01:15;;;;;;;4.32;2.80;;;;;;;-140.66;100.00;55571.53;5054107;28;20040;-72
2022/09/12 05:04:01;;;;;;;5.68;2.90;;;;;;;-140.66;100.00;55571.53;5053282;28;20360;-72
2022/09/12 05:06:47;;;;;;;3.13;2.40;;;;;;;-140.66;100.00;55571.53;5039167;28;20100;-72
2022/09/12 05:09:32;;;;;;;7.78;2.75;;;;;;;-140.66;100.00;55571.53;5053277;28;20469;-71
2022/09/12 05:12:18;;;;;;;3.50;2.65;;;;;;;-140.66;100.00;55571.53;5053724;28;20460;-72
2022/09/12 05:15:05;;;;;;;3.22;2.53;;;;;;;-140.66;100.00;55571.53;5038763;28;20503;-72
2022/09/12 05:17:51;;;;;;;4.07;2.90;;;;;;;-140.66;100.00;55571.53;5039479;28;20415;-72
2022/09/12 05:20:36;;;;;;;9.00;3.90;;;;;;;-140.66;100.00;55571.53;5053635;28;20032;-73
2022/09/12 05:23:23;;;;;;;4.35;2.75;;;;;;;-140.66;100.00;55571.53;5053465;28;20043;-71
2022/09/12 05:26:14;;;;;;;5.80;3.55;;;;;;;-140.66;100.00;55571.53;5057349;28;20347;-71
2022/09/12 05:29:03;;;;;;;3.72;2.75;;;;;;;-140.66;100.00;55571.53;5056887;28;20021;-71
2022/09/12 05:31:51;;;;;;;3.22;2.83;;;;;;;-140.66;100.00;55571.53;5057111;28;20509;-72
2022/09/12 05:34:37;;;;;;;3.50;2.65;;;;;;;-140.66;100.00;55571.53;5057063;28;20365;-72
2022/09/12 05:37:23;;;;;;;6.28;2.63;;;;;;;-140.66;100.00;55571.53;5056676;28;20020;-71
2022/09/12 05:40:09;;;;;;;4.28;3.10;;;;;;;-140.66;100.00;55571.53;5056594;28;20430;-72
2022/09/12 05:42:54;;;;;;;5.20;3.90;;;;;;;-140.66;100.00;55571.53;5042828;28;20029;-71
2022/09/12 05:45:40;;;;;;;4.70;2.30;;;;;;;-140.66;100.00;55571.53;5056168;28;20021;-72
2022/09/12 05:48:27;;;;;;;3.90;2.47;;;;;;;-140.66;100.00;55571.53;5042416;28;20120;-72
2022/09/12 05:51:22;;;;;;;4.85;2.17;;;;;;;-140.66;100.00;55571.53;5042373;28;20362;-72
2022/09/12 05:54:10;;;;;;;4.95;2.40;;;;;;;-140.66;100.00;55571.53;5057117;28;20048;-71
2022/09/12 05:56:56;;;;;;;4.90;2.47;;;;;;;-140.66;100.00;55571.53;5056473;28;20159;-71
2022/09/12 05:59:42;;;;;;;3.45;2.35;;;;;;;-140.66;100.00;55571.53;5056117;28;20028;-71
2022/09/12 06:02:28;;;;;;;2.78;2.22;;;;;;;-140.66;100.00;55571.53;5056741;28;20030;-72
2022/09/12 06:05:13;;;;;;;5.75;2.20;;;;;;;-140.66;100.00;55571.53;5056484;28;20069;-72
2022/09/12 06:07:59;;;;;;;4.63;2.55;;;;;;;-140.66;100.00;55571.53;5056475;28;20068;-72
2022/09/12 06:10:45;;;;;;;7.07;2.05;;;;;;;-140.66;100.00;55571.53;5042775;28;20024;-72
2022/09/12 06:13:36;;;;;;;4.57;2.58;;;;;;;-140.66;100.00;55571.53;5055789;28;20039;-72
2022/09/12 06:16:24;;;;;;;5.75;2.55;;;;;;;-140.66;100.00;55571.53;5055778;28;20036;-71
2022/09/12 06:19:16;;;;;;;3.47;2.38;;;;;;;-140.66;100.00;55571.53;5056897;28;20107;-72
2022/09/12 06:22:03;;;;;;;2.60;2.13;;;;;;;-140.66;100.00;55571.53;5056554;28;20039;-72
2022/09/12 06:24:49;;;;;;;4.00;2.20;;;;;;;-140.66;100.00;55571.53;5056017;28;20104;-72
2022/09/12 06:27:35;;;;;;;6.72;1.75;;;;;;;-140.66;100.00;55571.53;5055735;28;20029;-72
2022/09/12 06:30:21;;;;;;;3.30;2.00;;;;;;;-140.66;100.00;55571.53;5055689;28;20025;-71
2022/09/12 06:33:06;;;;;;;3.65;1.85;;;;;;;-140.66;100.00;55571.53;5056476;28;20426;-72
2022/09/12 06:35:52;;;;;;;7.40;1.70;;;;;;;-140.66;100.00;55571.53;5055496;28;20029;-72
2022/09/12 06:38:39;;;;;;;4.95;1.80;;;;;;;-140.66;100.00;55571.53;5055530;28;20043;-72
2022/09/12 06:41:25;;;;;;;7.07;1.83;;;;;;;-140.66;100.00;55571.53;5054885;28;20024;-72
2022/09/12 06:44:20;;;;;;;3.63;2.00;;;;;;;-140.66;100.00;55571.53;5055765;28;20036;-71
2022/09/12 06:47:06;;;;;;;5.35;1.80;;;;;;;-140.66;100.00;55571.53;5055708;28;20063;-72
2022/09/12 06:49:52;;;;;;;3.72;1.98;;;;;;;-140.66;100.00;55571.53;5055136;28;20043;-71
2022/09/12 06:52:37;;;;;;;3.60;1.80;;;;;;;-140.66;100.00;55571.53;5055558;28;20056;-72
2022/09/12 06:55:23;;;;;;;3.63;2.20;;;;;;;-140.66;100.00;55571.53;5054679;28;20493;-72
2022/09/12 06:58:09;;;;;;;7.50;3.33;;;;;;;-140.66;100.00;55571.53;5041587;28;20037;-71
2022/09/12 07:01:09;;;;;;;2.75;1.75;;;;;;;-140.66;100.00;55571.53;5056497;28;20036;-72
2022/09/12 07:03:58;;;;;;;2.75;1.90;;;;;;;-140.66;100.00;55571.53;5055763;28;20033;-72
2022/09/12 07:06:43;;;;;;;4.45;1.80;;;;;;;-140.66;100.00;55571.53;5065286;28;20036;-71
2022/09/12 07:09:29;;;;;;;6.80;1.70;;;;;;;-140.66;100.00;55571.53;5066822;28;20040;-71
2022/09/12 07:12:15;;;;;;;4.07;1.63;;;;;;;-140.66;100.00;55571.53;5066749;28;20029;-71
2022/09/12 07:15:01;;;;;;;4.70;1.80;;;;;;;-140.66;100.00;55571.53;5051555;28;20078;-71
2022/09/12 07:17:46;;;;;;;2.35;1.45;;;;;;;-140.66;100.00;55571.53;5063033;28;20111;-71
2022/09/12 07:20:32;;;;;;;3.65;1.50;;;;;;;-140.66;100.00;55571.53;5066341;28;20033;-71
2022/09/12 07:23:18;;;;;;;4.03;1.55;;;;;;;-140.66;100.00;55571.53;5051897;28;20021;-71
2022/09/12 07:26:04;;;;;;;2.25;1.80;;;;;;;-140.66;100.00;55571.53;5050452;28;20112;-71
2022/09/12 07:28:52;;;;;;;4.50;1.90;;;;;;;-140.66;100.00;55571.53;5060472;28;20029;-72
2022/09/12 07:31:38;;;;;;;7.60;1.70;;;;;;;-140.66;100.00;55571.53;5055691;28;20060;-71
2022/09/12 07:34:24;;;;;;;2.42;1.70;;;;;;;-140.66;100.00;55571.53;5055430;28;20116;-72
2022/09/12 07:37:10;;;;;;;9.15;2.08;;;;;;;-140.66;100.00;55571.53;5055179;28;20453;-71
2022/09/12 07:39:56;;;;;;;3.17;1.77;;;;;;;-140.66;100.00;55571.53;5055846;28;20041;-71
2022/09/12 07:42:42;;;;;;;4.45;1.60;;;;;;;-140.66;100.00;55571.53;5040531;28;20452;-71
2022/09/12 07:45:28;;;;;;;4.00;1.70;;;;;;;-140.66;100.00;55571.53;5040409;28;20374;-72
2022/09/12 07:48:14;;;;;;;4.55;1.80;;;;;;;-140.66;100.00;55571.53;5053636;28;20318;-71
2022/09/12 07:51:02;;;;;;;4.68;2.00;;;;;;;-140.66;100.00;55571.53;5055059;28;20047;-71
2022/09/12 07:53:49;;;;;;;5.07;1.85;;;;;;;-140.66;100.00;55571.53;5040053;28;20028;-72
2022/09/12 07:56:35;;;;;;;4.70;1.67;;;;;;;-140.66;100.00;55571.53;5053660;28;20075;-70
2022/09/12 07:59:20;;;;;;;7.78;2.50;;;;;;;-140.66;100.00;55571.53;5054213;28;20044;-72
2022/09/12 08:02:10;;;;;;;5.30;1.95;;;;;;;-140.66;100.00;55571.53;5054896;28;20025;-71
2022/09/12 08:04:56;;;;;;;3.38;1.70;;;;;;;-140.66;100.00;55571.53;5053738;28;20035;-72
2022/09/12 08:07:41;;;;;;;3.50;1.48;;;;;;;-140.66;100.00;55571.53;5040022;28;20035;-72
2022/09/12 08:10:27;;;;;;;4.45;1.90;;;;;;;-140.66;100.00;55571.53;5054505;28;20036;-72
2022/09/12 08:13:13;;;;;;;4.63;1.95;;;;;;;-140.66;100.00;55571.53;5054761;28;20025;-71
2022/09/12 08:16:00;;;;;;;4.22;1.80;;;;;;;-140.66;100.00;55571.53;5054764;28;20029;-72
2022/09/12 08:18:47;;;;;;;7.03;1.80;;;;;;;-140.66;100.00;55571.53;5053667;28;20431;-72
2022/09/12 08:21:33;;;;;;;2.72;1.60;;;;;;;-140.66;100.00;55571.53;5054584;28;20032;-73
2022/09/12 08:24:19;;;;;;;4.22;2.15;;;;;;;-140.66;100.00;55571.53;5054187;28;20098;-71
2022/09/12 08:27:05;;;;;;;5.80;2.80;;;;;;;-140.66;100.00;55571.53;5053379;28;20031;-71
2022/09/12 08:29:52;;;;;;;5.40;2.20;;;;;;;-140.66;100.00;55571.53;5056714;28;20059;-71
2022/09/12 08:32:38;;;;;;;3.97;2.03;;;;;;;-140.66;100.00;55571.53;5054292;28;20028;-71
2022/09/12 08:35:23;;;;;;;8.32;2.45;;;;;;;-140.66;100.00;55571.53;5039462;28;20037;-72
2022/09/12 08:38:09;;;;;;;4.60;2.30;;;;;;;-140.66;100.00;55571.53;5039802;28;20108;-71
2022/09/12 08:41:14;;;;;;;4.10;1.73;;;;;;;-140.66;100.00;55571.53;5054031;28;20043;-72
2022/09/12 08:44:06;;;;;;;5.55;1.90;;;;;;;-140.66;100.00;55571.53;5053279;28;20059;-71
2022/09/12 08:47:33;;;;;;;6.35;2.33;;;;;;;-140.66;100.00;55571.53;5052981;28;20057;-71
2022/09/12 08:50:21;;;;;;;5.32;1.83;;;;;;;-140.66;100.00;55571.53;5047017;28;20033;-70
2022/09/12 08:53:15;;;;;;;3.38;1.70;;;;;;;-140.66;100.00;55571.53;5052904;28;20383;-71
2022/09/12 08:56:03;;;;;;;4.85;1.67;;;;;;;-140.66;100.00;55571.53;5053028;28;20056;-72
2022/09/12 08:58:49;;;;;;;4.65;1.92;;;;;;;-140.66;100.00;55571.53;5041302;28;20120;-70
2022/09/12 09:01:41;;;;;;;8.32;2.42;;;;;;;-140.66;100.00;55571.53;5057580;28;20029;-72
2022/09/12 09:04:40;;;;;;;7.20;3.33;;;;;;;-140.66;100.00;55571.53;5057735;28;20071;-72
2022/09/12 09:07:39;;;;;;;8.60;3.33;;;;;;;-140.66;100.00;55571.53;5058251;28;20350;-71
2022/09/12 09:10:49;;;;;;;8.85;4.32;;;;;;;-140.66;100.00;55571.53;5058627;28;20497;-72
2022/09/12 09:17:10;;;;;;;3.33;2.10;;;;;;;-140.66;100.00;55571.53;5058204;28;20029;-71
2022/09/12 09:20:27;;;;;;;2.17;1.52;;;;;;;-140.66;100.00;55571.53;5057729;28;20123;-72
2022/09/12 09:23:31;;;;;;;5.55;1.90;;;;;;;-140.66;100.00;55571.53;5057271;28;20436;-71
2022/09/12 09:26:26;;;;;;;8.95;3.75;;;;;;;-140.66;100.00;55571.53;5057079;28;20049;-71
2022/09/12 09:29:26;;;;;;;5.00;2.38;;;;;;;-140.66;100.00;55571.53;5043656;28;20025;-72
2022/09/12 09:32:24;;;;;;;3.28;2.47;;;;;;;-140.66;100.00;55571.53;5056689;28;20448;-72
2022/09/12 09:35:36;;;;;;;4.43;2.10;;;;;;;-140.66;100.00;55571.53;5057194;28;20043;-72
2022/09/12 09:38:33;;;;;;;3.83;2.40;;;;;;;-140.66;100.00;55571.53;5058354;28;20525;-72
2022/09/12 09:41:31;;;;;;;4.90;2.30;;;;;;;-140.66;100.00;55571.53;5056976;28;20043;-71
2022/09/12 09:44:17;;;;;;;4.18;1.58;;;;;;;-140.66;100.00;55571.53;5056644;28;20568;-72
2022/09/12 09:47:04;;;;;;;1.63;1.10;;;;;;;-140.66;100.00;55571.53;5043031;28;20047;-72
2022/09/12 09:49:49;;;;;;;5.05;1.60;;;;;;;-140.66;100.00;55571.53;5056636;28;20423;-72
2022/09/12 09:52:36;;;;;;;6.03;1.70;;;;;;;-140.66;100.00;55571.53;5056830;28;20449;-71
2022/09/12 09:55:29;;;;;;;3.15;1.35;;;;;;;-140.66;100.00;55571.53;5057763;28;20053;-72
2022/09/12 09:58:34;;;;;;;2.67;1.30;;;;;;;-140.66;100.00;55571.53;5043101;28;20346;-72
2022/09/12 10:01:20;;;;;;;2.53;1.42;;;;;;;-140.66;100.00;55571.53;5057232;28;20032;-72
2022/09/12 10:04:17;;;;;;;3.17;1.50;;;;;;;-140.66;100.00;55571.53;5042583;28;20036;-72
2022/09/12 10:07:04;;;;;;;3.80;1.17;;;;;;;-140.66;100.00;55571.53;5056296;28;20032;-72
2022/09/12 10:10:13;;;;;;;3.58;1.30;;;;;;;-140.66;100.00;55571.53;5056973;28;20124;-72
2022/09/12 10:13:08;;;;;;;5.05;1.23;;;;;;;-140.66;100.00;55571.53;5057002;28;20059;-71
2022/09/12 10:15:58;;;;;;;4.07;1.20;;;;;;;-140.66;100.00;55571.53;5056126;28;20031;-72
2022/09/12 10:18:44;;;;;;;6.72;1.20;;;;;;;-140.66;100.00;55571.53;5056303;28;20116;-72
2022/09/12 10:21:51;;;;;;;4.03;1.20;;;;;;;-140.66;100.00;55571.53;5056848;28;20020;-72
2022/09/12 10:24:42;;;;;;;4.32;1.30;;;;;;;-140.66;100.00;55571.53;5056031;28;20099;-72
2022/09/12 10:27:32;;;;;;;1.85;1.42;;;;;;;-140.66;100.00;55571.53;5056368;28;20039;-72
2022/09/12 10:30:23;;;;;;;2.55;1.10;;;;;;;-140.66;100.00;55571.53;5056472;28;20130;-72
2022/09/12 10:33:11;;;;;;;4.10;1.40;;;;;;;-140.66;100.00;55571.53;5056172;28;20480;-72
2022/09/12 10:35:58;;;;;;;4.30;1.45;;;;;;;-140.66;100.00;55571.53;5056764;28;20024;-72
2022/09/12 10:38:52;;;;;;;1.45;1.05;;;;;;;-140.66;100.00;55571.53;5055804;28;20028;-73
2022/09/12 10:41:40;;;;;;;1.73;1.30;;;;;;;-140.66;100.00;55571.53;5055706;28;20025;-71
2022/09/12 10:44:29;;;;;;;5.20;1.20;;;;;;;-140.66;100.00;55571.53;5055713;28;20036;-71
2022/09/12 10:47:21;;;;;;;4.53;1.25;;;;;;;-140.66;100.00;55571.53;5056143;28;20048;-71
2022/09/12 10:50:28;;;;;;;2.85;1.00;;;;;;;-140.66;100.00;55571.53;5056620;28;20028;-72
2022/09/12 10:53:27;;;;;;;3.97;1.10;;;;;;;-140.66;100.00;55571.53;5055928;28;20029;-71
2022/09/12 10:56:19;;;;;;;2.33;1.15;;;;;;;-140.66;100.00;55571.53;5055410;28;20495;-72
2022/09/12 10:59:23;;;;;;;1.65;1.10;;;;;;;-140.66;100.00;55571.53;5056955;28;20392;-72
2022/09/12 11:02:18;;;;;;;1.30;1.17;;;;;;;-140.66;100.00;55571.53;5056489;28;20037;-71
2022/09/12 11:05:19;;;;;;;2.72;1.20;;;;;;;-140.66;100.00;55571.53;5056263;28;20051;-71
2022/09/12 11:08:23;;;;;;;1.88;1.40;;;;;;;-140.66;100.00;55571.53;5055526;28;20408;-71
2022/09/12 11:11:09;;;;;;;2.67;1.45;;;;;;;-140.66;100.00;55571.53;5055503;28;20040;-72
2022/09/12 11:13:54;;;;;;;4.53;1.67;;;;;;;-140.66;100.00;55571.53;5055260;28;20040;-72
2022/09/12 11:17:05;;;;;;;1.35;1.17;;;;;;;-140.66;100.00;55571.53;5054812;28;20074;-71
2022/09/12 11:20:09;;;;;;;2.40;1.60;;;;;;;-140.66;100.00;55571.53;5055594;28;20030;-72
2022/09/12 11:22:57;;;;;;;4.50;1.60;;;;;;;-140.66;100.00;55571.53;5054087;28;20024;-72
2022/09/12 11:25:55;;;;;;;8.38;2.15;;;;;;;-140.66;100.00;55571.53;5054771;28;20445;-72
2022/09/12 11:29:06;;;;;;;5.18;1.75;;;;;;;-140.66;100.00;55571.53;5054968;28;20099;-71
2022/09/12 11:32:12;;;;;;;6.75;1.38;;;;;;;-140.66;100.00;55571.53;5041171;28;20408;-70
2022/09/12 11:35:07;;;;;;;4.40;1.30;;;;;;;-140.66;100.00;55571.53;5040553;28;20111;-71
2022/09/12 11:38:23;;;;;;;2.25;1.15;;;;;;;-140.66;100.00;55571.53;5041036;28;20349;-71
2022/09/12 11:41:17;;;;;;;2.30;1.17;;;;;;;-140.66;100.00;55571.53;5055722;28;20032;-72
2022/09/12 11:44:06;;;;;;;1.38;1.10;;;;;;;-140.66;100.00;55571.53;5054595;28;20025;-72
2022/09/12 11:46:51;;;;;;;1.77;1.10;;;;;;;-140.66;100.00;55571.53;5056093;28;20112;-72
2022/09/12 11:49:48;;;;;;;2.70;1.20;;;;;;;-140.66;100.00;55571.53;5055504;28;20032;-72
2022/09/12 11:52:36;;;;;;;4.13;1.27;;;;;;;-140.66;100.00;55571.53;5055443;28;20024;-72
2022/09/12 11:55:27;;;;;;;2.92;1.30;;;;;;;-140.66;100.00;55571.53;5040036;28;20519;-71
2022/09/12 11:58:14;;;;;;;4.10;1.20;;;;;;;-140.66;100.00;55571.53;5054166;28;20159;-71
2022/09/12 12:01:14;;;;;;;2.10;1.10;;;;;;;-140.66;100.00;55571.53;5054372;28;20098;-72
2022/09/12 12:04:07;;;;;;;1.95;1.00;;;;;;;-140.66;100.00;55571.53;5054735;28;20045;-73
2022/09/12 12:07:09;;;;;;;2.85;1.00;;;;;;;-140.66;100.00;55571.53;5055852;28;20368;-72
2022/09/12 12:09:55;;;;;;;2.70;0.90;;;;;;;-140.66;100.00;55571.53;5040628;28;20021;-72
2022/09/12 12:12:41;;;;;;;4.45;0.90;;;;;;;-140.66;100.00;55571.53;5054036;28;20025;-72
2022/09/12 12:15:29;;;;;;;4.75;1.00;;;;;;;-140.66;100.00;55571.53;5054191;28;20108;-72
2022/09/12 12:18:27;;;;;;;1.85;0.80;;;;;;;-140.66;100.00;55571.53;5054146;28;20025;-76
2022/09/12 12:21:18;;;;;;;1.45;0.85;;;;;;;-140.66;100.00;55571.53;5041064;28;20067;-73
2022/09/12 12:24:07;;;;;;;2.58;0.90;;;;;;;-140.66;100.00;55571.53;5040432;28;20442;-74
2022/09/12 12:27:02;;;;;;;2.83;0.95;;;;;;;-140.66;100.00;55571.53;5053970;28;20115;-74
2022/09/12 12:29:48;;;;;;;1.50;0.98;;;;;;;-140.66;100.00;55571.53;5041426;28;20082;-76
2022/09/12 12:32:34;;;;;;;3.38;0.93;;;;;;;-140.66;100.00;55571.53;5054699;28;20033;-74
2022/09/12 12:36:01;;;;;;;2.70;0.80;;;;;;;-140.66;100.00;55571.53;5040056;28;20067;-73
2022/09/12 12:38:47;;;;;;;1.88;0.80;;;;;;;-140.66;100.00;55571.53;5021371;28;20099;-72
2022/09/12 12:41:35;;;;;;;2.15;0.90;;;;;;;-140.66;100.00;55571.53;5054891;28;20361;-73
2022/09/12 12:44:43;;;;;;;1.23;0.82;;;;;;;-140.66;100.00;55571.53;5053626;28;20021;-72
2022/09/12 12:47:37;;;;;;;3.45;0.90;;;;;;;-140.66;100.00;55571.53;5055080;28;20039;-71
2022/09/12 12:50:29;;;;;;;2.97;0.80;;;;;;;-140.66;100.00;55571.53;5040088;28;20031;-74
2022/09/12 12:53:26;;;;;;;2.33;1.00;;;;;;;-140.66;100.00;55571.53;5054363;28;20128;-72
2022/09/12 12:56:28;;;;;;;1.52;0.70;;;;;;;-140.66;100.00;55571.53;5039371;28;20045;-72
2022/09/12 12:59:21;;;;;;;3.22;0.82;;;;;;;-140.66;100.00;55571.53;5054437;28;20025;-75
2022/09/12 13:02:19;;;;;;;1.52;1.08;;;;;;;-140.66;100.00;55571.53;5053440;28;20029;-72
2022/09/12 13:05:18;;;;;;;2.90;1.10;;;;;;;-140.66;100.00;55571.53;5053189;28;20037;-72